Thunder radar more information blitzortung!


Radar de pluja more information rain snow radar


Visita la nostra xarxa de llocs de meteo:

Template documentation
and downloads

And another site



No particular awareness of the weather is required.    There are no Weather-warnings

Pagina Historial Weather Underground text

Diari Resum February 17, 2019 Unitats:  Imperial    Mètric   Tant
« Previous Dia
SegĂźent Dia »
Diari Setmana Mensual Anual Personalitzada
  Actual: Maxima: Minima: Media:
Temperatura: 13.8 °F TemperatureC °F 0.9 °F 4.5 °F
Punt de rosada: 0.8 °F DewpointC °F -6.6 °F -3.5 °F
Humitat: 41 % Humidity % 41 % 56 %
Wind Speed: 5.6 mph WindSpeedKMH mph 0.0 mph 1.7 mph
RĂ fegues de vent: 2.6 mph WindSpeedGustKMH mph - -
Vent:East - - SE
Pression baro: 1025.9 in PressurehPa in 1025.9 in -
Precipitacions: 0.0 in      
Historical Graphs
 
 
Dades de taula per February 17, 2019
Temps Temperatura Punt de rosada Pression baro Vent Wind Speed RĂ fegues de vent Humitat Rainfall Rate (Hourly)
TemperatureC °F DewpointC °F PressurehPa in Calm     Humidity % HourlyPrecipMM in
00:04 4.7 °F -2.2 °F 1027.9 in Calm     61 % 0.0 in
00:09 4.7 °F -2.4 °F 1027.9 in Calm     60 % 0.0 in
00:14 4.7 °F -2.4 °F 1027.9 in Calm     60 % 0.0 in
00:19 4.6 °F -2.5 °F 1027.9 in Calm     60 % 0.0 in
00:24 4.7 °F -2.4 °F 1027.9 in Calm     60 % 0.0 in
00:29 4.7 °F -2.4 °F 1027.9 in Calm     60 % 0.0 in
00:34 4.8 °F -2.3 °F 1027.9 in Calm     60 % 0.0 in
00:39 4.7 °F -2.4 °F 1027.9 in Calm     60 % 0.0 in
00:44 4.7 °F -2.2 °F 1027.9 in Calm     61 % 0.0 in
00:49 4.7 °F -2.2 °F 1027.9 in Calm     61 % 0.0 in
00:54 4.6 °F -2.3 °F 1027.9 in Calm     61 % 0.0 in
00:59 4.6 °F -2.3 °F 1027.9 in Calm     61 % 0.0 in
01:04 4.5 °F -2.4 °F 1027.9 in Calm     61 % 0.0 in
01:09 4.5 °F -2.4 °F 1027.9 in ENE 3.7 mph   61 % 0.0 in
01:14 4.4 °F -2.5 °F 1027.9 in ENE 1.9 mph 1.9 mph 61 % 0.0 in
01:19 4.2 °F -2.7 °F 1027.9 in ENE 1.9 mph   61 % 0.0 in
01:24 4.1 °F -2.8 °F 1027.9 in NE 1.9 mph   61 % 0.0 in
01:29 3.9 °F -3.2 °F 1027.9 in Calm     60 % 0.0 in
01:34 3.7 °F -3.3 °F 1027.9 in Calm     60 % 0.0 in
01:39 3.6 °F -3.4 °F 1027.9 in WSW 1.9 mph 1.4 mph 60 % 0.0 in
01:44 3.5 °F -3.8 °F 1027.9 in WSW 3.7 mph 1.9 mph 59 % 0.0 in
01:49 3.5 °F -3.6 °F 1027.9 in Calm     60 % 0.0 in
01:54 3.4 °F -3.7 °F 1027.9 in Calm     60 % 0.0 in
01:59 3.4 °F -3.7 °F 1027.9 in SW 1.4 mph   60 % 0.0 in
02:04 3.3 °F -3.7 °F 1027.9 in WSW 1.9 mph   60 % 0.0 in
02:09 3.3 °F -3.5 °F 1027.9 in SSE 1.9 mph   61 % 0.0 in
02:14 3.2 °F -3.8 °F 1027.9 in WSW 1.9 mph   60 % 0.0 in
02:19 3.2 °F -3.8 °F 1027.9 in WSW 3.7 mph 2.6 mph 60 % 0.0 in
02:24 3.2 °F -3.6 °F 1027.9 in Calm     61 % 0.0 in
02:29 3.1 °F -3.7 °F 1026.9 in Calm     61 % 0.0 in
02:34 3.1 °F -3.7 °F 1026.9 in Calm     61 % 0.0 in
02:39 3.0 °F -3.8 °F 1026.9 in Calm     61 % 0.0 in
02:44 3.0 °F -4.0 °F 1026.9 in West 1.9 mph 2.3 mph 60 % 0.0 in
02:49 3.0 °F -4.0 °F 1026.9 in SW 3.7 mph   60 % 0.0 in
02:54 3.0 °F -4.0 °F 1026.9 in Calm     60 % 0.0 in
02:59 2.9 °F -3.9 °F 1026.9 in Calm     61 % 0.0 in
03:04 2.8 °F -4.0 °F 1026.9 in Calm     61 % 0.0 in
03:09 2.8 °F -4.0 °F 1026.9 in Calm     61 % 0.0 in
03:14 2.7 °F -4.1 °F 1026.9 in Calm     61 % 0.0 in
03:19 2.7 °F -4.1 °F 1026.9 in Calm     61 % 0.0 in
03:24 2.7 °F -4.1 °F 1026.9 in Calm     61 % 0.0 in
03:29 2.6 °F -4.2 °F 1026.9 in Calm     61 % 0.0 in
03:34 2.6 °F -4.2 °F 1026.9 in South 1.9 mph   61 % 0.0 in
03:39 2.6 °F -4.2 °F 1026.9 in Calm     61 % 0.0 in
03:44 2.5 °F -4.3 °F 1026.9 in Calm     61 % 0.0 in
03:49 2.4 °F -4.4 °F 1026.9 in Calm     61 % 0.0 in
03:54 2.3 °F -4.4 °F 1026.9 in Calm     61 % 0.0 in
03:59 2.3 °F -4.4 °F 1026.9 in Calm     61 % 0.0 in
04:04 2.3 °F -4.4 °F 1026.9 in Calm     61 % 0.0 in
04:09 2.2 °F -4.6 °F 1026.9 in Calm     61 % 0.0 in
04:14 2.2 °F -4.6 °F 1026.9 in Calm     61 % 0.0 in
04:19 2.3 °F -4.4 °F 1026.9 in Calm     61 % 0.0 in
04:24 2.3 °F -4.4 °F 1026.9 in Calm     61 % 0.0 in
04:29 2.3 °F -4.4 °F 1026.9 in Calm     61 % 0.0 in
04:34 2.4 °F -4.4 °F 1026.9 in Calm     61 % 0.0 in
04:39 2.4 °F -4.4 °F 1026.9 in Calm     61 % 0.0 in
04:44 2.2 °F -4.8 °F 1026.9 in Calm     60 % 0.0 in
04:49 2.2 °F -4.6 °F 1026.9 in Calm     61 % 0.0 in
04:54 2.1 °F -4.7 °F 1026.9 in Calm     61 % 0.0 in
04:59 2.2 °F -4.6 °F 1026.9 in NNE 1.9 mph 1.9 mph 61 % 0.0 in
05:04 2.2 °F -4.6 °F 1026.9 in NNW 1.4 mph   61 % 0.0 in
05:09 2.3 °F -4.7 °F 1026.9 in NNW 1.9 mph   60 % 0.0 in
05:14 2.4 °F -4.6 °F 1026.9 in Calm     60 % 0.0 in
05:19 2.3 °F -4.7 °F 1026.9 in Calm     60 % 0.0 in
05:24 2.2 °F -5.0 °F 1026.9 in Calm     59 % 0.0 in
05:29 2.2 °F -5.0 °F 1026.9 in Calm     59 % 0.0 in
05:34 2.2 °F -5.0 °F 1026.9 in Calm     59 % 0.0 in
05:39 2.0 °F -5.4 °F 1026.9 in SW 1.9 mph   58 % 0.0 in
05:44 1.9 °F -5.3 °F 1026.9 in Calm     59 % 0.0 in
05:49 1.8 °F -5.4 °F 1026.9 in NNE 1.9 mph   59 % 0.0 in
05:54 1.7 °F -5.4 °F 1026.9 in Calm     59 % 0.0 in
05:59 1.7 °F -5.4 °F 1026.9 in Calm     59 % 0.0 in
06:04 1.6 °F -5.6 °F 1026.9 in Calm     59 % 0.0 in
06:09 1.7 °F -5.4 °F 1026.9 in Calm     59 % 0.0 in
06:14 1.7 °F -5.4 °F 1026.9 in Calm     59 % 0.0 in
06:19 1.7 °F -5.4 °F 1026.9 in Calm     59 % 0.0 in
06:24 1.6 °F -5.8 °F 1026.9 in NNE 1.9 mph   58 % 0.0 in
06:29 1.6 °F -5.8 °F 1026.9 in Calm     58 % 0.0 in
06:34 1.6 °F -5.8 °F 1026.9 in Calm     58 % 0.0 in
06:39 1.6 °F -5.8 °F 1026.9 in Calm     58 % 0.0 in
06:44 1.6 °F -6.0 °F 1026.9 in Calm     57 % 0.0 in
06:49 1.5 °F -5.9 °F 1026.9 in Calm     58 % 0.0 in
06:54 1.4 °F -6.0 °F 1026.9 in NNW 3.7 mph   58 % 0.0 in
06:59 1.4 °F -6.0 °F 1026.9 in NNW 1.9 mph   58 % 0.0 in
07:04 1.3 °F -6.1 °F 1026.9 in Calm     58 % 0.0 in
07:09 1.2 °F -6.2 °F 1026.9 in Calm     58 % 0.0 in
07:14 1.2 °F -6.4 °F 1026.9 in SW 2.3 mph 2.3 mph 57 % 0.0 in
07:19 1.0 °F -6.6 °F 1026.9 in SW 1.9 mph   57 % 0.0 in
07:24 1.0 °F -6.3 °F 1026.9 in Calm     58 % 0.0 in
07:29 0.9 °F -6.4 °F 1026.9 in Calm   1.4 mph 58 % 0.0 in
07:34 0.9 °F -6.4 °F 1026.9 in ENE 1.9 mph   58 % 0.0 in
07:39 0.9 °F -6.4 °F 1026.9 in Calm     58 % 0.0 in
07:44 0.9 °F -6.4 °F 1026.9 in Calm     58 % 0.0 in
07:49 0.9 °F -6.2 °F 1026.9 in Calm     59 % 0.0 in
07:54 0.9 °F -6.4 °F 1026.9 in Calm     58 % 0.0 in
07:59 1.0 °F -6.1 °F 1027.9 in Calm     59 % 0.0 in
08:04 1.1 °F -6.1 °F 1027.9 in Calm     59 % 0.0 in
08:09 1.2 °F -5.9 °F 1027.9 in Calm     59 % 0.0 in
08:14 1.3 °F -5.8 °F 1027.9 in Calm     59 % 0.0 in
08:19 1.5 °F -5.7 °F 1027.9 in Calm     59 % 0.0 in
08:24 1.4 °F -5.7 °F 1027.9 in Calm     59 % 0.0 in
08:29 1.5 °F -5.7 °F 1027.9 in Calm     59 % 0.0 in
08:34 1.4 °F -6.0 °F 1027.9 in Calm     58 % 0.0 in
08:39 1.5 °F -5.9 °F 1027.9 in Calm     58 % 0.0 in
08:44 1.7 °F -5.7 °F 1027.9 in Calm     58 % 0.0 in
08:49 1.9 °F -5.5 °F 1027.9 in Calm     58 % 0.0 in
08:54 2.1 °F -5.3 °F 1027.9 in Calm     58 % 0.0 in
08:59 2.3 °F -5.3 °F 1027.9 in SSW 2.3 mph 1.9 mph 57 % 0.0 in
09:04 2.4 °F -5.3 °F 1027.9 in SW 5.6 mph 3.9 mph 57 % 0.0 in
09:09 2.6 °F -5.1 °F 1027.9 in SSW 1.9 mph   57 % 0.0 in
09:14 2.8 °F -5.1 °F 1027.9 in South 3.2 mph   56 % 0.0 in
09:19 3.5 °F -4.4 °F 1027.9 in SSW 2.3 mph 1.4 mph 56 % 0.0 in
09:24 4.1 °F -3.9 °F 1027.9 in SSW 3.7 mph   56 % 0.0 in
09:29 4.2 °F -3.8 °F 1027.9 in South 2.6 mph   56 % 0.0 in
09:34 4.6 °F -3.7 °F 1027.9 in SSE 2.3 mph 2.3 mph 55 % 0.0 in
09:39 5.0 °F -3.3 °F 1027.9 in SE 5.6 mph   55 % 0.0 in
09:44 5.2 °F -3.1 °F 1027.9 in South 3.7 mph 1.4 mph 55 % 0.0 in
09:49 5.6 °F -3.0 °F 1027.9 in SE 1.9 mph   54 % 0.0 in
09:54 6.0 °F -2.6 °F 1027.9 in ENE 3.7 mph 1.9 mph 54 % 0.0 in
09:59 6.0 °F -2.9 °F 1027.9 in NNE 3.7 mph 1.9 mph 53 % 0.0 in
10:04 6.2 °F -2.7 °F 1027.9 in NNE 3.7 mph 2.3 mph 53 % 0.0 in
10:09 6.4 °F -2.5 °F 1027.9 in ENE 3.7 mph 2.6 mph 53 % 0.0 in
10:14 6.5 °F -2.4 °F 1027.9 in NE 3.7 mph 3.5 mph 53 % 0.0 in
10:19 6.7 °F -2.5 °F 1027.9 in ENE 3.7 mph 2.6 mph 52 % 0.0 in
10:24 7.0 °F -1.9 °F 1027.9 in WNW 3.7 mph   53 % 0.0 in
10:29 7.2 °F -2.0 °F 1027.9 in NNE 3.7 mph 3.5 mph 52 % 0.0 in
10:34 7.0 °F -2.2 °F 1027.9 in NE 5.0 mph 3.9 mph 52 % 0.0 in
10:39 7.2 °F -2.0 °F 1027.9 in East 4.2 mph 3.5 mph 52 % 0.0 in
10:44 7.5 °F -2.0 °F 1027.9 in ENE 3.7 mph 2.6 mph 51 % 0.0 in
10:49 8.0 °F -1.6 °F 1027.9 in ENE 2.6 mph 2.3 mph 51 % 0.0 in
10:54 8.1 °F -1.4 °F 1027.9 in ENE 4.2 mph 3.2 mph 51 % 0.0 in
10:59 8.2 °F -1.3 °F 1027.9 in East 3.7 mph 1.9 mph 51 % 0.0 in
11:04 8.7 °F -0.9 °F 1027.9 in East 5.0 mph 2.3 mph 51 % 0.0 in
11:09 9.0 °F -0.6 °F 1027.9 in East 3.7 mph 2.6 mph 51 % 0.0 in
11:14 9.1 °F -0.8 °F 1027.9 in East 5.6 mph 3.5 mph 50 % 0.0 in
11:19 9.5 °F -0.4 °F 1027.9 in ESE 1.9 mph 2.3 mph 50 % 0.0 in
11:24 9.6 °F -0.3 °F 1027.9 in ESE 5.6 mph 3.5 mph 50 % 0.0 in
11:29 10.0 °F -0.2 °F 1027.9 in SE 1.9 mph 1.4 mph 49 % 0.0 in
11:34 10.4 °F 0.1 °F 1027.9 in East 5.3 mph 2.6 mph 49 % 0.0 in
11:39 10.3 °F -0.2 °F 1027.9 in NNE 5.6 mph 4.7 mph 48 % 0.0 in
11:44 10.6 °F 0.1 °F 1026.9 in NNW 5.6 mph 4.2 mph 48 % 0.0 in
11:49 10.6 °F -0.3 °F 1026.9 in ENE 7.4 mph 4.2 mph 47 % 0.0 in
11:54 11.0 °F 0.1 °F 1026.9 in East 4.7 mph 4.2 mph 47 % 0.0 in
11:59 11.2 °F 0.3 °F 1026.9 in WNW 3.7 mph 1.9 mph 47 % 0.0 in
12:04 11.4 °F 0.8 °F 1026.9 in WSW 3.7 mph 2.6 mph 48 % 0.0 in
12:09 11.6 °F 0.7 °F 1026.9 in NE 3.7 mph 2.3 mph 47 % 0.0 in
12:14 11.9 °F 0.6 °F 1026.9 in SE 5.6 mph 3.2 mph 46 % 0.0 in
12:19 12.3 °F 0.7 °F 1026.9 in NNE 5.6 mph 4.2 mph 45 % 0.0 in
12:24 12.4 °F 0.4 °F 1026.9 in NNE 3.9 mph 3.2 mph 44 % 0.0 in
12:29 12.3 °F -0.3 °F 1026.9 in East 7.4 mph 5.0 mph 42 % 0.0 in
12:34 12.4 °F 0.2 °F 1026.9 in South 3.7 mph   43 % 0.0 in
12:39 12.8 °F 0.5 °F 1026.9 in SW 5.6 mph 3.5 mph 43 % 0.0 in
12:44 13.2 °F 0.6 °F 1026.9 in ENE 5.6 mph 1.9 mph 42 % 0.0 in
12:49 13.1 °F 0.4 °F 1026.9 in ESE 5.6 mph 5.0 mph 42 % 0.0 in
12:54 13.0 °F 0.1 °F 1026.9 in ESE 7.4 mph 4.2 mph 41 % 0.0 in
12:59 13.3 °F 0.9 °F 1025.9 in SW 3.7 mph 2.3 mph 43 % 0.0 in
13:04 13.7 °F 0.7 °F 1025.9 in SE 6.9 mph 5.0 mph 41 % 0.0 in
13:09 13.8 °F 0.8 °F 1025.9 in East 5.6 mph 2.6 mph 41 % 0.0 in
Meteo Sesrovires
Elogis d' Weather Underground - 1.25 mb

Guio original per  Jim McMurry - jmcmurry@mwt.net Adaptat per a la plantilla per  Wim van der Kuil - Leuven-Template.eu

Trobareu la nostra informacio del temps tambe a:

Weather Underground

AWEKAS